CHA weather

Charole Airport
ComondĂș, Baja California Sur, Mexico

Public forecast

Using degrees Celsius for public forecast. Weather courtesy of forecast.io.

Closest aviation weather report (METAR) to Charole Airport

Closest report is Loreto International Airport, 33.0 nm (61.0 km) S. Retrieved 2020/07/04 16:46 UTC (1 hour ago):

MMLT 041646Z 11007KT 10SM SCT150 BKN240 32/21 A2987 RMK 8/032

Closest aviation forecast (TAF) to Charole Airport

Forecast is more than 6 hours old.

Closest forecast is Loreto International Airport, 33.0 nm (61.0 km) S. Retrieved 2020/07/04 06:48 UTC (11 hours ago):

TAF MMLT 040444Z 0406/0506 06005KT P6SM SKC FM041600 04010KT P6SM SCT250 FM050300 03005KT P6SM SCT250